Madisonville, Texas
Current Conditions -  °F | °C
As of 11:53 AM on Friday 28 Nov 2014 (Local Time) from KUTS Reporting Station
Clear Clear  
Wind Chill: 65°   Ceiling: Unl
Heat Index: 65°   Visibility: 10mi
Dew Point: 49°   Wind: 10mph
Humidity: 56%   Direction: 200°SSW
Pressure: 30.26"   Gusts: 20mph
Location:  30.95°N, 95.91°W
Report Text: KUTS 281753Z AUTO 20009G17KT 10SM CLR 18/09 A3026 RMK AO2 SLP245 T01830094 10183 20067 58024
Loading
Personal Weather Stations






























Interactive Weather Map New forecast layout! Learn more

10-Day Weather Forecast

Advertisements
Track Severe Weather on mobile